sensor_id;sensor_type;location;lat;lon;timestamp;temperature;humidity
52787;DHT22;38661;53.152;5.846;2022-08-21T00:01:53;16.00;82.60
52787;DHT22;38661;53.152;5.846;2022-08-21T00:04:20;16.00;82.70
52787;DHT22;38661;53.152;5.846;2022-08-21T00:06:46;16.00;82.80
52787;DHT22;38661;53.152;5.846;2022-08-21T00:09:11;16.10;83.30
52787;DHT22;38661;53.152;5.846;2022-08-21T00:11:39;16.00;83.10
52787;DHT22;38661;53.152;5.846;2022-08-21T00:14:07;16.00;83.10
52787;DHT22;38661;53.152;5.846;2022-08-21T00:16:33;16.00;83.30
52787;DHT22;38661;53.152;5.846;2022-08-21T00:18:59;16.00;83.40
52787;DHT22;38661;53.152;5.846;2022-08-21T00:21:25;16.00;83.20
52787;DHT22;38661;53.152;5.846;2022-08-21T00:23:51;16.00;83.10
52787;DHT22;38661;53.152;5.846;2022-08-21T00:26:17;15.90;83.10
52787;DHT22;38661;53.152;5.846;2022-08-21T00:28:43;15.80;83.00
52787;DHT22;38661;53.152;5.846;2022-08-21T00:31:11;15.80;83.10
52787;DHT22;38661;53.152;5.846;2022-08-21T00:33:36;15.70;83.10
52787;DHT22;38661;53.152;5.846;2022-08-21T00:36:03;15.70;83.10
52787;DHT22;38661;53.152;5.846;2022-08-21T00:38:29;15.70;83.30
52787;DHT22;38661;53.152;5.846;2022-08-21T00:40:57;15.70;83.40
52787;DHT22;38661;53.152;5.846;2022-08-21T00:43:31;15.70;83.40
52787;DHT22;38661;53.152;5.846;2022-08-21T00:45:58;15.60;83.30
52787;DHT22;38661;53.152;5.846;2022-08-21T00:48:25;15.60;83.50
52787;DHT22;38661;53.152;5.846;2022-08-21T00:51:11;15.60;83.40
52787;DHT22;38661;53.152;5.846;2022-08-21T00:53:41;15.60;83.40
52787;DHT22;38661;53.152;5.846;2022-08-21T00:56:09;15.50;83.50
52787;DHT22;38661;53.152;5.846;2022-08-21T00:58:36;15.50;83.50
52787;DHT22;38661;53.152;5.846;2022-08-21T01:01:05;15.50;83.90
52787;DHT22;38661;53.152;5.846;2022-08-21T01:03:31;15.50;84.50
52787;DHT22;38661;53.152;5.846;2022-08-21T01:05:57;15.50;84.60
52787;DHT22;38661;53.152;5.846;2022-08-21T01:08:23;15.50;84.70
52787;DHT22;38661;53.152;5.846;2022-08-21T01:10:50;15.50;84.50
52787;DHT22;38661;53.152;5.846;2022-08-21T01:13:18;15.50;84.40
52787;DHT22;38661;53.152;5.846;2022-08-21T01:15:47;15.50;84.40
52787;DHT22;38661;53.152;5.846;2022-08-21T01:18:15;15.50;84.40
52787;DHT22;38661;53.152;5.846;2022-08-21T01:23:11;15.50;85.20
52787;DHT22;38661;53.152;5.846;2022-08-21T01:25:37;15.40;85.60
52787;DHT22;38661;53.152;5.846;2022-08-21T01:28:09;15.40;85.50
52787;DHT22;38661;53.152;5.846;2022-08-21T01:30:36;15.40;85.40
52787;DHT22;38661;53.152;5.846;2022-08-21T01:33:04;15.40;85.50
52787;DHT22;38661;53.152;5.846;2022-08-21T01:35:30;15.40;85.30
52787;DHT22;38661;53.152;5.846;2022-08-21T01:37:55;15.50;85.40
52787;DHT22;38661;53.152;5.846;2022-08-21T01:40:21;15.40;85.50
52787;DHT22;38661;53.152;5.846;2022-08-21T01:42:47;15.40;85.60
52787;DHT22;38661;53.152;5.846;2022-08-21T01:45:15;15.40;85.70
52787;DHT22;38661;53.152;5.846;2022-08-21T01:47:42;15.30;85.80
52787;DHT22;38661;53.152;5.846;2022-08-21T01:50:11;15.40;85.80
52787;DHT22;38661;53.152;5.846;2022-08-21T01:52:38;15.30;85.60
52787;DHT22;38661;53.152;5.846;2022-08-21T01:55:06;15.30;85.60
52787;DHT22;38661;53.152;5.846;2022-08-21T01:57:32;15.30;85.40
52787;DHT22;38661;53.152;5.846;2022-08-21T01:59:58;15.30;85.40
52787;DHT22;38661;53.152;5.846;2022-08-21T02:02:24;15.20;85.50
52787;DHT22;38661;53.152;5.846;2022-08-21T02:04:50;15.30;85.80
52787;DHT22;38661;53.152;5.846;2022-08-21T02:07:15;15.20;86.60
52787;DHT22;38661;53.152;5.846;2022-08-21T02:09:41;15.10;86.80
52787;DHT22;38661;53.152;5.846;2022-08-21T02:12:10;15.10;87.00
52787;DHT22;38661;53.152;5.846;2022-08-21T02:14:37;15.10;86.40
52787;DHT22;38661;53.152;5.846;2022-08-21T02:17:03;15.10;86.40
52787;DHT22;38661;53.152;5.846;2022-08-21T02:19:29;15.20;86.90
52787;DHT22;38661;53.152;5.846;2022-08-21T02:21:55;15.20;87.00
52787;DHT22;38661;53.152;5.846;2022-08-21T02:24:20;15.20;86.90
52787;DHT22;38661;53.152;5.846;2022-08-21T02:26:46;15.30;86.40
52787;DHT22;38661;53.152;5.846;2022-08-21T02:29:12;15.30;86.40
52787;DHT22;38661;53.152;5.846;2022-08-21T02:31:38;15.30;87.00
52787;DHT22;38661;53.152;5.846;2022-08-21T02:34:04;15.30;87.10
52787;DHT22;38661;53.152;5.846;2022-08-21T02:36:30;15.30;87.50
52787;DHT22;38661;53.152;5.846;2022-08-21T02:38:56;15.30;87.60
52787;DHT22;38661;53.152;5.846;2022-08-21T02:41:22;15.30;87.20
52787;DHT22;38661;53.152;5.846;2022-08-21T02:43:48;15.30;87.40
52787;DHT22;38661;53.152;5.846;2022-08-21T02:46:16;15.30;87.10
52787;DHT22;38661;53.152;5.846;2022-08-21T02:48:43;15.30;87.10
52787;DHT22;38661;53.152;5.846;2022-08-21T02:51:18;15.30;86.90
52787;DHT22;38661;53.152;5.846;2022-08-21T02:53:45;15.30;86.50
52787;DHT22;38661;53.152;5.846;2022-08-21T02:56:15;15.30;87.90
52787;DHT22;38661;53.152;5.846;2022-08-21T02:58:47;15.30;87.10
52787;DHT22;38661;53.152;5.846;2022-08-21T03:01:14;15.40;87.00
52787;DHT22;38661;53.152;5.846;2022-08-21T03:03:42;15.40;87.10
52787;DHT22;38661;53.152;5.846;2022-08-21T03:06:10;15.40;87.00
52787;DHT22;38661;53.152;5.846;2022-08-21T03:08:36;15.40;86.80
52787;DHT22;38661;53.152;5.846;2022-08-21T03:11:04;15.50;87.20
52787;DHT22;38661;53.152;5.846;2022-08-21T03:13:29;15.50;87.20
52787;DHT22;38661;53.152;5.846;2022-08-21T03:15:55;15.50;86.90
52787;DHT22;38661;53.152;5.846;2022-08-21T03:18:21;15.50;87.30
52787;DHT22;38661;53.152;5.846;2022-08-21T03:20:47;15.50;86.80
52787;DHT22;38661;53.152;5.846;2022-08-21T03:23:14;15.50;87.90
52787;DHT22;38661;53.152;5.846;2022-08-21T03:25:41;15.50;87.50
52787;DHT22;38661;53.152;5.846;2022-08-21T03:28:11;15.40;87.50
52787;DHT22;38661;53.152;5.846;2022-08-21T03:30:37;15.40;87.60
52787;DHT22;38661;53.152;5.846;2022-08-21T03:33:03;15.40;88.30
52787;DHT22;38661;53.152;5.846;2022-08-21T03:35:29;15.40;88.70
52787;DHT22;38661;53.152;5.846;2022-08-21T03:37:55;15.40;88.10
52787;DHT22;38661;53.152;5.846;2022-08-21T03:40:24;15.30;88.00
52787;DHT22;38661;53.152;5.846;2022-08-21T03:42:50;15.30;88.40
52787;DHT22;38661;53.152;5.846;2022-08-21T03:45:20;15.40;88.00
52787;DHT22;38661;53.152;5.846;2022-08-21T03:50:22;15.30;88.70
52787;DHT22;38661;53.152;5.846;2022-08-21T03:52:49;15.30;88.00
52787;DHT22;38661;53.152;5.846;2022-08-21T03:55:15;15.30;89.10
52787;DHT22;38661;53.152;5.846;2022-08-21T03:57:40;15.30;89.40
52787;DHT22;38661;53.152;5.846;2022-08-21T04:00:07;15.20;89.10
52787;DHT22;38661;53.152;5.846;2022-08-21T04:02:35;15.20;89.40
52787;DHT22;38661;53.152;5.846;2022-08-21T04:05:01;15.20;88.70
52787;DHT22;38661;53.152;5.846;2022-08-21T04:07:27;15.20;88.80
52787;DHT22;38661;53.152;5.846;2022-08-21T04:09:53;15.20;89.10
52787;DHT22;38661;53.152;5.846;2022-08-21T04:12:19;15.20;89.00
52787;DHT22;38661;53.152;5.846;2022-08-21T04:14:45;15.20;88.70
52787;DHT22;38661;53.152;5.846;2022-08-21T04:17:11;15.20;89.80
52787;DHT22;38661;53.152;5.846;2022-08-21T04:19:37;15.20;90.40
52787;DHT22;38661;53.152;5.846;2022-08-21T04:22:02;15.20;89.90
52787;DHT22;38661;53.152;5.846;2022-08-21T04:24:28;15.20;89.90
52787;DHT22;38661;53.152;5.846;2022-08-21T04:26:53;15.10;89.80
52787;DHT22;38661;53.152;5.846;2022-08-21T04:29:19;15.10;90.40
52787;DHT22;38661;53.152;5.846;2022-08-21T04:31:45;15.10;89.90
52787;DHT22;38661;53.152;5.846;2022-08-21T04:34:10;15.10;89.60
52787;DHT22;38661;53.152;5.846;2022-08-21T04:36:36;15.20;89.40
52787;DHT22;38661;53.152;5.846;2022-08-21T04:39:02;15.20;89.20
52787;DHT22;38661;53.152;5.846;2022-08-21T04:41:28;15.20;89.20
52787;DHT22;38661;53.152;5.846;2022-08-21T04:43:54;15.20;89.50
52787;DHT22;38661;53.152;5.846;2022-08-21T04:46:21;15.20;89.40
52787;DHT22;38661;53.152;5.846;2022-08-21T04:48:47;15.20;89.70
52787;DHT22;38661;53.152;5.846;2022-08-21T04:51:22;15.20;90.10
52787;DHT22;38661;53.152;5.846;2022-08-21T04:53:54;15.10;89.90
52787;DHT22;38661;53.152;5.846;2022-08-21T04:56:26;15.10;90.40
52787;DHT22;38661;53.152;5.846;2022-08-21T04:58:55;15.10;90.30
52787;DHT22;38661;53.152;5.846;2022-08-21T05:01:23;15.10;90.60
52787;DHT22;38661;53.152;5.846;2022-08-21T05:03:53;15.20;90.00
52787;DHT22;38661;53.152;5.846;2022-08-21T05:06:21;15.20;90.10
52787;DHT22;38661;53.152;5.846;2022-08-21T05:08:48;15.20;90.20
52787;DHT22;38661;53.152;5.846;2022-08-21T05:11:15;15.30;90.70
52787;DHT22;38661;53.152;5.846;2022-08-21T05:13:41;15.30;91.10
52787;DHT22;38661;53.152;5.846;2022-08-21T05:16:07;15.30;91.70
52787;DHT22;38661;53.152;5.846;2022-08-21T05:18:33;15.30;91.30
52787;DHT22;38661;53.152;5.846;2022-08-21T05:20:59;15.30;91.40
52787;DHT22;38661;53.152;5.846;2022-08-21T05:23:25;15.40;91.20
52787;DHT22;38661;53.152;5.846;2022-08-21T05:25:51;15.40;90.80
52787;DHT22;38661;53.152;5.846;2022-08-21T05:28:17;15.40;90.80
52787;DHT22;38661;53.152;5.846;2022-08-21T05:30:43;15.50;91.20
52787;DHT22;38661;53.152;5.846;2022-08-21T05:33:09;15.50;90.80
52787;DHT22;38661;53.152;5.846;2022-08-21T05:35:37;15.60;91.90
52787;DHT22;38661;53.152;5.846;2022-08-21T05:38:03;15.70;91.80
52787;DHT22;38661;53.152;5.846;2022-08-21T05:40:29;15.70;91.70
52787;DHT22;38661;53.152;5.846;2022-08-21T05:42:55;15.70;91.90
52787;DHT22;38661;53.152;5.846;2022-08-21T05:45:23;15.80;91.60
52787;DHT22;38661;53.152;5.846;2022-08-21T05:47:49;15.90;91.70
52787;DHT22;38661;53.152;5.846;2022-08-21T05:50:17;15.90;91.60
52787;DHT22;38661;53.152;5.846;2022-08-21T05:52:42;16.00;91.00
52787;DHT22;38661;53.152;5.846;2022-08-21T05:55:08;16.10;91.70
52787;DHT22;38661;53.152;5.846;2022-08-21T05:57:34;16.10;91.60
52787;DHT22;38661;53.152;5.846;2022-08-21T05:59:59;16.20;91.60
52787;DHT22;38661;53.152;5.846;2022-08-21T06:02:25;16.30;92.10
52787;DHT22;38661;53.152;5.846;2022-08-21T06:04:51;16.40;92.60
52787;DHT22;38661;53.152;5.846;2022-08-21T06:07:17;16.50;91.50
52787;DHT22;38661;53.152;5.846;2022-08-21T06:09:42;16.50;92.30
52787;DHT22;38661;53.152;5.846;2022-08-21T06:12:11;16.60;91.60
52787;DHT22;38661;53.152;5.846;2022-08-21T06:14:39;16.70;91.60
52787;DHT22;38661;53.152;5.846;2022-08-21T06:17:07;16.70;91.40
52787;DHT22;38661;53.152;5.846;2022-08-21T06:19:34;16.80;91.30
52787;DHT22;38661;53.152;5.846;2022-08-21T06:22:00;16.90;91.30
52787;DHT22;38661;53.152;5.846;2022-08-21T06:24:26;17.00;91.10
52787;DHT22;38661;53.152;5.846;2022-08-21T06:26:52;17.00;91.20
52787;DHT22;38661;53.152;5.846;2022-08-21T06:29:18;17.00;90.80
52787;DHT22;38661;53.152;5.846;2022-08-21T06:31:46;17.00;90.90
52787;DHT22;38661;53.152;5.846;2022-08-21T06:34:11;17.10;90.60
52787;DHT22;38661;53.152;5.846;2022-08-21T06:36:38;17.10;91.00
52787;DHT22;38661;53.152;5.846;2022-08-21T06:39:04;17.20;91.70
52787;DHT22;38661;53.152;5.846;2022-08-21T06:41:32;17.30;91.20
52787;DHT22;38661;53.152;5.846;2022-08-21T06:43:58;17.40;90.90
52787;DHT22;38661;53.152;5.846;2022-08-21T06:46:25;17.50;91.50
52787;DHT22;38661;53.152;5.846;2022-08-21T06:48:51;17.60;90.60
52787;DHT22;38661;53.152;5.846;2022-08-21T06:51:17;17.70;90.70
52787;DHT22;38661;53.152;5.846;2022-08-21T06:53:43;17.80;90.20
52787;DHT22;38661;53.152;5.846;2022-08-21T06:56:09;17.90;90.70
52787;DHT22;38661;53.152;5.846;2022-08-21T06:58:34;18.00;90.30
52787;DHT22;38661;53.152;5.846;2022-08-21T07:01:00;18.20;90.80
52787;DHT22;38661;53.152;5.846;2022-08-21T07:03:33;18.30;90.20
52787;DHT22;38661;53.152;5.846;2022-08-21T07:05:59;18.40;90.10
52787;DHT22;38661;53.152;5.846;2022-08-21T07:08:26;18.50;90.60
52787;DHT22;38661;53.152;5.846;2022-08-21T07:10:53;18.60;90.30
52787;DHT22;38661;53.152;5.846;2022-08-21T07:13:20;18.60;90.00
52787;DHT22;38661;53.152;5.846;2022-08-21T07:15:46;18.80;90.00
52787;DHT22;38661;53.152;5.846;2022-08-21T07:18:12;18.90;89.80
52787;DHT22;38661;53.152;5.846;2022-08-21T07:20:38;19.00;89.20
52787;DHT22;38661;53.152;5.846;2022-08-21T07:23:08;19.00;89.00
52787;DHT22;38661;53.152;5.846;2022-08-21T07:25:34;19.10;89.00
52787;DHT22;38661;53.152;5.846;2022-08-21T07:28:00;19.30;88.80
52787;DHT22;38661;53.152;5.846;2022-08-21T07:30:26;19.40;88.50
52787;DHT22;38661;53.152;5.846;2022-08-21T07:32:52;19.40;89.00
52787;DHT22;38661;53.152;5.846;2022-08-21T07:35:19;19.50;89.10
52787;DHT22;38661;53.152;5.846;2022-08-21T07:37:45;19.60;88.70
52787;DHT22;38661;53.152;5.846;2022-08-21T07:40:12;19.70;88.00
52787;DHT22;38661;53.152;5.846;2022-08-21T07:42:43;19.80;87.90
52787;DHT22;38661;53.152;5.846;2022-08-21T07:45:10;19.90;87.40
52787;DHT22;38661;53.152;5.846;2022-08-21T07:47:36;19.90;87.30
52787;DHT22;38661;53.152;5.846;2022-08-21T07:50:02;19.90;86.90
52787;DHT22;38661;53.152;5.846;2022-08-21T07:52:28;19.90;86.60
52787;DHT22;38661;53.152;5.846;2022-08-21T07:54:54;19.90;86.10
52787;DHT22;38661;53.152;5.846;2022-08-21T07:57:20;19.90;86.00
52787;DHT22;38661;53.152;5.846;2022-08-21T07:59:45;20.00;86.20
52787;DHT22;38661;53.152;5.846;2022-08-21T08:02:22;20.20;86.40
52787;DHT22;38661;53.152;5.846;2022-08-21T08:04:47;20.40;85.60
52787;DHT22;38661;53.152;5.846;2022-08-21T08:07:13;20.40;84.80
52787;DHT22;38661;53.152;5.846;2022-08-21T08:09:39;20.40;84.00
52787;DHT22;38661;53.152;5.846;2022-08-21T08:12:05;20.50;83.90
52787;DHT22;38661;53.152;5.846;2022-08-21T08:14:30;20.60;83.50
52787;DHT22;38661;53.152;5.846;2022-08-21T08:16:56;20.80;82.70
52787;DHT22;38661;53.152;5.846;2022-08-21T08:19:22;20.90;82.00
52787;DHT22;38661;53.152;5.846;2022-08-21T08:21:47;20.80;81.50
52787;DHT22;38661;53.152;5.846;2022-08-21T08:24:13;20.90;80.40
52787;DHT22;38661;53.152;5.846;2022-08-21T08:26:39;21.00;80.80
52787;DHT22;38661;53.152;5.846;2022-08-21T08:29:05;21.20;80.00
52787;DHT22;38661;53.152;5.846;2022-08-21T08:31:31;21.50;79.30
52787;DHT22;38661;53.152;5.846;2022-08-21T08:33:56;21.50;78.10
52787;DHT22;38661;53.152;5.846;2022-08-21T08:36:32;21.50;77.40
52787;DHT22;38661;53.152;5.846;2022-08-21T08:38:59;21.50;78.30
52787;DHT22;38661;53.152;5.846;2022-08-21T08:41:26;21.50;77.00
52787;DHT22;38661;53.152;5.846;2022-08-21T08:43:55;21.50;76.30
52787;DHT22;38661;53.152;5.846;2022-08-21T08:46:33;21.50;76.60
52787;DHT22;38661;53.152;5.846;2022-08-21T08:52:07;21.70;76.60
52787;DHT22;38661;53.152;5.846;2022-08-21T08:54:48;21.90;76.10
52787;DHT22;38661;53.152;5.846;2022-08-21T08:57:20;22.00;74.80
52787;DHT22;38661;53.152;5.846;2022-08-21T08:59:50;22.10;74.90
52787;DHT22;38661;53.152;5.846;2022-08-21T09:02:17;22.20;74.00
52787;DHT22;38661;53.152;5.846;2022-08-21T09:04:46;22.40;73.50
52787;DHT22;38661;53.152;5.846;2022-08-21T09:10:06;22.70;70.80
52787;DHT22;38661;53.152;5.846;2022-08-21T09:24:40;21.90;72.80
52787;DHT22;38661;53.152;5.846;2022-08-21T09:29:34;21.50;74.50
52787;DHT22;38661;53.152;5.846;2022-08-21T09:32:00;21.70;75.00
52787;DHT22;38661;53.152;5.846;2022-08-21T09:34:31;21.90;75.00
52787;DHT22;38661;53.152;5.846;2022-08-21T09:36:57;22.20;74.50
52787;DHT22;38661;53.152;5.846;2022-08-21T09:39:30;22.40;72.80
52787;DHT22;38661;53.152;5.846;2022-08-21T09:42:26;22.40;69.80
52787;DHT22;38661;53.152;5.846;2022-08-21T09:45:25;22.60;67.30
52787;DHT22;38661;53.152;5.846;2022-08-21T09:47:51;22.90;68.10
52787;DHT22;38661;53.152;5.846;2022-08-21T09:50:23;23.00;67.10
52787;DHT22;38661;53.152;5.846;2022-08-21T09:52:53;23.10;66.60
52787;DHT22;38661;53.152;5.846;2022-08-21T09:55:33;22.90;65.60
52787;DHT22;38661;53.152;5.846;2022-08-21T09:58:19;22.90;64.60
52787;DHT22;38661;53.152;5.846;2022-08-21T10:00:45;23.10;64.50
52787;DHT22;38661;53.152;5.846;2022-08-21T10:03:21;23.30;64.90
52787;DHT22;38661;53.152;5.846;2022-08-21T10:05:52;23.40;63.90
52787;DHT22;38661;53.152;5.846;2022-08-21T10:08:20;23.50;63.30
52787;DHT22;38661;53.152;5.846;2022-08-21T10:10:51;23.70;62.00
52787;DHT22;38661;53.152;5.846;2022-08-21T10:16:06;23.90;59.90
52787;DHT22;38661;53.152;5.846;2022-08-21T10:27:16;24.10;58.70
52787;DHT22;38661;53.152;5.846;2022-08-21T10:29:58;24.30;59.30
52787;DHT22;38661;53.152;5.846;2022-08-21T10:32:47;24.30;59.60
52787;DHT22;38661;53.152;5.846;2022-08-21T10:35:29;24.00;59.90
52787;DHT22;38661;53.152;5.846;2022-08-21T10:49:17;23.10;63.50
52787;DHT22;38661;53.152;5.846;2022-08-21T10:51:54;23.00;64.00
52787;DHT22;38661;53.152;5.846;2022-08-21T10:56:59;23.20;63.70
52787;DHT22;38661;53.152;5.846;2022-08-21T10:59:44;23.40;63.20
52787;DHT22;38661;53.152;5.846;2022-08-21T11:07:26;24.10;61.00
52787;DHT22;38661;53.152;5.846;2022-08-21T11:09:56;24.00;60.90
52787;DHT22;38661;53.152;5.846;2022-08-21T11:12:42;23.90;60.90
52787;DHT22;38661;53.152;5.846;2022-08-21T11:18:26;23.80;61.40
52787;DHT22;38661;53.152;5.846;2022-08-21T11:26:03;23.90;58.70
52787;DHT22;38661;53.152;5.846;2022-08-21T11:28:36;24.20;58.70
52787;DHT22;38661;53.152;5.846;2022-08-21T11:34:21;24.50;57.20
52787;DHT22;38661;53.152;5.846;2022-08-21T11:37:06;24.60;56.10
52787;DHT22;38661;53.152;5.846;2022-08-21T11:40:00;24.90;55.90
52787;DHT22;38661;53.152;5.846;2022-08-21T11:42:37;25.00;54.70
52787;DHT22;38661;53.152;5.846;2022-08-21T11:45:27;25.20;54.40
52787;DHT22;38661;53.152;5.846;2022-08-21T11:48:08;25.30;54.50
52787;DHT22;38661;53.152;5.846;2022-08-21T11:50:37;25.40;54.20
52787;DHT22;38661;53.152;5.846;2022-08-21T11:53:10;25.30;54.40
52787;DHT22;38661;53.152;5.846;2022-08-21T11:55:48;25.40;54.10
52787;DHT22;38661;53.152;5.846;2022-08-21T11:58:25;25.50;54.20
52787;DHT22;38661;53.152;5.846;2022-08-21T12:00:58;25.50;54.30
52787;DHT22;38661;53.152;5.846;2022-08-21T12:03:32;25.20;54.10
52787;DHT22;38661;53.152;5.846;2022-08-21T12:06:04;24.90;55.50
52787;DHT22;38661;53.152;5.846;2022-08-21T12:08:38;24.90;55.80
52787;DHT22;38661;53.152;5.846;2022-08-21T12:11:23;24.90;55.60
52787;DHT22;38661;53.152;5.846;2022-08-21T12:19:09;24.50;56.10
52787;DHT22;38661;53.152;5.846;2022-08-21T12:24:48;24.90;54.80
52787;DHT22;38661;53.152;5.846;2022-08-21T12:29:55;24.90;54.00
52787;DHT22;38661;53.152;5.846;2022-08-21T12:32:30;24.80;53.60
52787;DHT22;38661;53.152;5.846;2022-08-21T12:40:32;25.00;53.50
52787;DHT22;38661;53.152;5.846;2022-08-21T12:43:03;24.90;53.70
52787;DHT22;38661;53.152;5.846;2022-08-21T12:45:40;24.80;53.70
52787;DHT22;38661;53.152;5.846;2022-08-21T12:51:05;24.70;53.30
52787;DHT22;38661;53.152;5.846;2022-08-21T12:56:34;24.90;53.30
52787;DHT22;38661;53.152;5.846;2022-08-21T12:59:04;25.10;52.90
52787;DHT22;38661;53.152;5.846;2022-08-21T13:01:44;25.20;52.90
52787;DHT22;38661;53.152;5.846;2022-08-21T13:04:15;25.20;52.50
52787;DHT22;38661;53.152;5.846;2022-08-21T13:06:46;25.00;52.70
52787;DHT22;38661;53.152;5.846;2022-08-21T13:09:15;25.10;52.70
52787;DHT22;38661;53.152;5.846;2022-08-21T13:11:44;25.00;53.80
52787;DHT22;38661;53.152;5.846;2022-08-21T13:14:21;25.00;53.90
52787;DHT22;38661;53.152;5.846;2022-08-21T13:16:55;25.10;53.50
52787;DHT22;38661;53.152;5.846;2022-08-21T13:19:22;25.00;53.90
52787;DHT22;38661;53.152;5.846;2022-08-21T13:21:48;24.80;53.80
52787;DHT22;38661;53.152;5.846;2022-08-21T13:24:29;24.60;54.10
52787;DHT22;38661;53.152;5.846;2022-08-21T13:26:56;24.70;54.60
52787;DHT22;38661;53.152;5.846;2022-08-21T13:29:28;24.90;54.80
52787;DHT22;38661;53.152;5.846;2022-08-21T13:31:58;24.90;53.80
52787;DHT22;38661;53.152;5.846;2022-08-21T13:34:30;25.00;54.50
52787;DHT22;38661;53.152;5.846;2022-08-21T13:36:59;25.20;53.40
52787;DHT22;38661;53.152;5.846;2022-08-21T13:39:26;25.30;53.30
52787;DHT22;38661;53.152;5.846;2022-08-21T13:41:55;25.50;53.50
52787;DHT22;38661;53.152;5.846;2022-08-21T13:44:34;25.70;52.80
52787;DHT22;38661;53.152;5.846;2022-08-21T13:47:02;25.80;51.90
52787;DHT22;38661;53.152;5.846;2022-08-21T13:49:37;25.70;51.60
52787;DHT22;38661;53.152;5.846;2022-08-21T13:52:04;25.80;51.60
52787;DHT22;38661;53.152;5.846;2022-08-21T13:54:40;25.80;51.10
52787;DHT22;38661;53.152;5.846;2022-08-21T13:57:28;25.80;51.10
52787;DHT22;38661;53.152;5.846;2022-08-21T14:00:11;25.90;50.70
52787;DHT22;38661;53.152;5.846;2022-08-21T14:02:42;25.90;50.80
52787;DHT22;38661;53.152;5.846;2022-08-21T14:05:25;25.80;51.50
52787;DHT22;38661;53.152;5.846;2022-08-21T14:10:28;25.60;51.60
52787;DHT22;38661;53.152;5.846;2022-08-21T14:12:59;25.40;52.00
52787;DHT22;38661;53.152;5.846;2022-08-21T14:15:29;25.40;51.90
52787;DHT22;38661;53.152;5.846;2022-08-21T14:18:17;25.40;52.20
52787;DHT22;38661;53.152;5.846;2022-08-21T14:20:44;25.50;51.60
52787;DHT22;38661;53.152;5.846;2022-08-21T14:23:11;25.50;51.70
52787;DHT22;38661;53.152;5.846;2022-08-21T14:25:43;25.50;51.60
52787;DHT22;38661;53.152;5.846;2022-08-21T14:28:29;25.20;52.00
52787;DHT22;38661;53.152;5.846;2022-08-21T14:30:58;25.10;52.00
52787;DHT22;38661;53.152;5.846;2022-08-21T14:33:30;25.10;53.00
52787;DHT22;38661;53.152;5.846;2022-08-21T14:35:56;24.90;54.00
52787;DHT22;38661;53.152;5.846;2022-08-21T14:38:25;24.80;55.50
52787;DHT22;38661;53.152;5.846;2022-08-21T14:41:08;24.80;56.30
52787;DHT22;38661;53.152;5.846;2022-08-21T14:43:36;24.90;56.00
52787;DHT22;38661;53.152;5.846;2022-08-21T14:46:02;25.00;56.50
52787;DHT22;38661;53.152;5.846;2022-08-21T14:48:28;25.20;56.30
52787;DHT22;38661;53.152;5.846;2022-08-21T14:50:53;25.10;56.50
52787;DHT22;38661;53.152;5.846;2022-08-21T14:53:19;25.10;56.70
52787;DHT22;38661;53.152;5.846;2022-08-21T14:55:45;25.00;56.40
52787;DHT22;38661;53.152;5.846;2022-08-21T14:58:29;25.00;55.80
52787;DHT22;38661;53.152;5.846;2022-08-21T15:00:55;25.10;55.90
52787;DHT22;38661;53.152;5.846;2022-08-21T15:03:23;25.10;55.40
52787;DHT22;38661;53.152;5.846;2022-08-21T15:05:49;25.30;54.60
52787;DHT22;38661;53.152;5.846;2022-08-21T15:08:16;25.30;54.00
52787;DHT22;38661;53.152;5.846;2022-08-21T15:10:41;25.20;54.70
52787;DHT22;38661;53.152;5.846;2022-08-21T15:13:08;25.40;54.00
52787;DHT22;38661;53.152;5.846;2022-08-21T15:15:40;25.40;53.90
52787;DHT22;38661;53.152;5.846;2022-08-21T15:18:06;25.30;54.10
52787;DHT22;38661;53.152;5.846;2022-08-21T15:20:32;25.20;54.00
52787;DHT22;38661;53.152;5.846;2022-08-21T15:22:58;25.30;54.80
52787;DHT22;38661;53.152;5.846;2022-08-21T15:25:24;25.30;54.10
52787;DHT22;38661;53.152;5.846;2022-08-21T15:27:50;25.40;54.10
52787;DHT22;38661;53.152;5.846;2022-08-21T15:30:15;25.30;53.30
52787;DHT22;38661;53.152;5.846;2022-08-21T15:32:41;25.30;53.90
52787;DHT22;38661;53.152;5.846;2022-08-21T15:35:07;25.20;54.00
52787;DHT22;38661;53.152;5.846;2022-08-21T15:37:33;25.10;53.70
52787;DHT22;38661;53.152;5.846;2022-08-21T15:39:59;24.90;54.30
52787;DHT22;38661;53.152;5.846;2022-08-21T15:42:26;25.00;54.10
52787;DHT22;38661;53.152;5.846;2022-08-21T15:44:53;25.00;54.00
52787;DHT22;38661;53.152;5.846;2022-08-21T15:47:27;25.10;54.30
52787;DHT22;38661;53.152;5.846;2022-08-21T15:49:53;25.20;54.30
52787;DHT22;38661;53.152;5.846;2022-08-21T15:52:21;25.30;52.60
52787;DHT22;38661;53.152;5.846;2022-08-21T15:54:47;25.40;52.00
52787;DHT22;38661;53.152;5.846;2022-08-21T15:57:15;25.20;51.10
52787;DHT22;38661;53.152;5.846;2022-08-21T15:59:44;25.10;51.70
52787;DHT22;38661;53.152;5.846;2022-08-21T16:02:15;24.90;52.30
52787;DHT22;38661;53.152;5.846;2022-08-21T16:04:42;24.90;52.40
52787;DHT22;38661;53.152;5.846;2022-08-21T16:07:08;25.00;51.90
52787;DHT22;38661;53.152;5.846;2022-08-21T16:09:34;25.10;52.00
52787;DHT22;38661;53.152;5.846;2022-08-21T16:12:00;25.20;51.90
52787;DHT22;38661;53.152;5.846;2022-08-21T16:14:28;25.20;51.80
52787;DHT22;38661;53.152;5.846;2022-08-21T16:16:54;25.20;51.80
52787;DHT22;38661;53.152;5.846;2022-08-21T16:19:20;25.10;52.50
52787;DHT22;38661;53.152;5.846;2022-08-21T16:21:46;24.90;52.40
52787;DHT22;38661;53.152;5.846;2022-08-21T16:24:12;24.70;53.40
52787;DHT22;38661;53.152;5.846;2022-08-21T16:26:38;24.50;52.20
52787;DHT22;38661;53.152;5.846;2022-08-21T16:29:04;24.40;52.70
52787;DHT22;38661;53.152;5.846;2022-08-21T16:31:32;24.50;53.10
52787;DHT22;38661;53.152;5.846;2022-08-21T16:33:58;24.50;52.50
52787;DHT22;38661;53.152;5.846;2022-08-21T16:36:25;24.60;52.60
52787;DHT22;38661;53.152;5.846;2022-08-21T16:38:53;24.60;52.90
52787;DHT22;38661;53.152;5.846;2022-08-21T16:41:20;24.60;53.30
52787;DHT22;38661;53.152;5.846;2022-08-21T16:43:48;24.60;53.30
52787;DHT22;38661;53.152;5.846;2022-08-21T16:46:14;24.50;53.30
52787;DHT22;38661;53.152;5.846;2022-08-21T16:48:41;24.40;53.40
52787;DHT22;38661;53.152;5.846;2022-08-21T16:51:10;24.30;52.80
52787;DHT22;38661;53.152;5.846;2022-08-21T16:53:36;24.10;53.80
52787;DHT22;38661;53.152;5.846;2022-08-21T16:56:03;23.90;54.50
52787;DHT22;38661;53.152;5.846;2022-08-21T16:58:35;23.90;55.30
52787;DHT22;38661;53.152;5.846;2022-08-21T17:01:07;23.90;55.60
52787;DHT22;38661;53.152;5.846;2022-08-21T17:03:38;23.80;55.70
52787;DHT22;38661;53.152;5.846;2022-08-21T17:06:06;23.70;55.50
52787;DHT22;38661;53.152;5.846;2022-08-21T17:08:32;23.60;56.10
52787;DHT22;38661;53.152;5.846;2022-08-21T17:10:59;23.50;56.10
52787;DHT22;38661;53.152;5.846;2022-08-21T17:13:26;23.50;56.90